Time;durP1;ratioP1;P1;durP2;ratioP2;P2;SDS_P1;SDS_P2;PMS_P1;PMS_P2;Temp;Humidity;BMP_temperature;BMP_pressure;BME280_temperature;BME280_humidity;BME280_pressure;Samples;Min_cycle;Max_cycle;Signal;HPM_P1;HPM_P2
2021/11/19 00:02:18;;;;;;;8.25;3.03;;;20.10;99.90;;;;;;5044144;28;20021;-69
2021/11/19 00:04:46;;;;;;;11.10;3.05;;;20.20;99.90;;;;;;5033982;28;20036;-69
2021/11/19 00:07:14;;;;;;;11.05;2.92;;;20.40;99.90;;;;;;5035162;28;20036;-69
2021/11/19 00:09:42;;;;;;;11.13;3.65;;;20.40;99.90;;;;;;5052913;28;20048;-69
2021/11/19 00:12:10;;;;;;;16.88;2.70;;;20.60;99.90;;;;;;5067276;28;20025;-69
2021/11/19 00:14:38;;;;;;;12.57;3.08;;;20.60;99.90;;;;;;5044449;28;20060;-69
2021/11/19 00:17:08;;;;;;;15.60;3.45;;;20.70;99.90;;;;;;5033447;28;20029;-69
2021/11/19 00:19:40;;;;;;;12.27;3.28;;;20.80;99.90;;;;;;5039537;28;20025;-69
2021/11/19 00:22:09;;;;;;;9.77;2.25;;;20.90;99.90;;;;;;5061123;28;20025;-69
2021/11/19 00:24:38;;;;;;;13.07;2.63;;;21.00;99.90;;;;;;5033099;28;20033;-70
2021/11/19 00:27:10;;;;;;;11.15;2.35;;;21.10;99.90;;;;;;5029148;28;20018;-70
2021/11/19 00:29:39;;;;;;;10.55;2.22;;;21.20;99.90;;;;;;5030390;28;20042;-70
2021/11/19 00:32:07;;;;;;;11.32;2.30;;;21.30;99.90;;;;;;5029641;28;20032;-70
2021/11/19 00:34:34;;;;;;;14.82;2.60;;;21.40;99.90;;;;;;5022913;28;20028;-71
2021/11/19 00:37:02;;;;;;;8.07;3.17;;;21.50;99.90;;;;;;5028672;28;20040;-71
2021/11/19 00:39:32;;;;;;;7.70;1.90;;;21.60;99.90;;;;;;5032556;28;20084;-70
2021/11/19 00:42:01;;;;;;;10.30;1.63;;;21.90;99.90;;;;;;5035392;28;20035;-71
2021/11/19 00:44:29;;;;;;;9.38;2.13;;;22.00;99.90;;;;;;5030896;28;20469;-71
2021/11/19 00:46:57;;;;;;;10.07;1.75;;;22.30;99.90;;;;;;5032321;28;20513;-71
2021/11/19 00:49:28;;;;;;;3.95;1.60;;;22.40;99.90;;;;;;5047429;28;20037;-71
2021/11/19 00:51:57;;;;;;;7.80;1.42;;;22.70;99.90;;;;;;5025650;28;20055;-69
2021/11/19 00:54:25;;;;;;;5.97;1.75;;;22.80;99.90;;;;;;5034835;28;20013;-70
2021/11/19 00:56:57;;;;;;;8.10;1.55;;;23.10;99.90;;;;;;5028719;28;20643;-70
2021/11/19 00:59:27;;;;;;;8.10;1.85;;;23.40;99.90;;;;;;5012358;28;20022;-69
2021/11/19 01:02:09;;;;;;;10.20;1.73;;;23.90;99.90;;;;;;5012037;28;20481;-71
2021/11/19 01:04:37;;;;;;;8.13;1.70;;;24.20;99.90;;;;;;5032360;28;20065;-68
2021/11/19 01:07:06;;;;;;;7.57;1.73;;;24.20;99.90;;;;;;5057071;28;20389;-68
2021/11/19 01:09:38;;;;;;;5.40;1.40;;;24.40;99.90;;;;;;5051697;28;20037;-68
2021/11/19 01:12:08;;;;;;;5.13;1.30;;;24.50;99.90;;;;;;5043595;28;20047;-67
2021/11/19 01:15:07;;;;;;;6.82;1.70;;;24.90;99.90;;;;;;5041144;28;20099;-67
2021/11/19 01:17:49;;;;;;;4.07;1.50;;;25.20;99.90;;;;;;5030585;28;20154;-68
2021/11/19 01:20:26;;;;;;;6.65;2.03;;;25.40;99.90;;;;;;5049491;28;20362;-67
2021/11/19 01:22:56;;;;;;;9.30;1.75;;;25.60;99.90;;;;;;5031789;28;20517;-68
2021/11/19 01:25:27;;;;;;;7.80;1.20;;;25.60;99.90;;;;;;5032180;28;20385;-71
2021/11/19 01:27:54;;;;;;;12.40;2.10;;;25.90;99.90;;;;;;5037382;28;20112;-71
2021/11/19 01:30:31;;;;;;;9.43;1.70;;;26.00;99.90;;;;;;5036290;28;20032;-70
2021/11/19 01:32:59;;;;;;;12.48;1.67;;;26.20;99.90;;;;;;5034926;28;20051;-70
2021/11/19 01:35:27;;;;;;;11.68;1.63;;;26.40;99.90;;;;;;5031056;28;20041;-70
2021/11/19 01:37:54;;;;;;;5.00;0.80;;;26.30;99.90;;;;;;5038478;28;20457;-70
2021/11/19 01:40:25;;;;;;;10.30;1.25;;;26.50;99.90;;;;;;5031753;28;20037;-70
2021/11/19 01:42:56;;;;;;;2.63;0.93;;;26.60;99.90;;;;;;5026575;28;20018;-70
2021/11/19 01:45:34;;;;;;;5.13;0.93;;;26.80;99.90;;;;;;5022413;28;20080;-70
2021/11/19 01:48:04;;;;;;;6.78;1.13;;;26.80;99.90;;;;;;5027430;28;20113;-70
2021/11/19 01:51:00;;;;;;;5.63;1.42;;;26.90;99.90;;;;;;5030875;28;20057;-70
2021/11/19 01:53:37;;;;;;;5.72;1.10;;;26.90;99.90;;;;;;5031186;28;20045;-70
2021/11/19 01:56:28;;;;;;;3.38;0.90;;;27.00;99.90;;;;;;5028369;28;20053;-70
2021/11/19 01:59:18;;;;;;;5.18;1.13;;;27.10;99.90;;;;;;5031946;28;20025;-71
2021/11/19 02:01:54;;;;;;;8.10;1.20;;;27.40;99.90;;;;;;5022006;28;20060;-71
2021/11/19 02:04:26;;;;;;;6.57;1.15;;;27.70;99.90;;;;;;5027527;28;20115;-70
2021/11/19 02:07:09;;;;;;;4.85;0.75;;;28.00;99.90;;;;;;5016815;28;20025;-71
2021/11/19 02:10:00;;;;;;;7.88;1.55;;;28.10;99.90;;;;;;5033559;28;20124;-71
2021/11/19 02:13:01;;;;;;;6.45;1.02;;;28.20;99.90;;;;;;5030296;28;20025;-72
2021/11/19 02:15:50;;;;;;;3.20;0.55;;;28.30;99.90;;;;;;5034980;28;20026;-73
2021/11/19 02:18:29;;;;;;;3.38;0.80;;;28.60;99.90;;;;;;5034418;28;20386;-72
2021/11/19 02:21:04;;;;;;;4.15;0.75;;;28.60;99.90;;;;;;5033950;28;20481;-72
2021/11/19 02:23:51;;;;;;;2.42;0.70;;;28.60;99.90;;;;;;5031766;28;20397;-72
2021/11/19 02:26:22;;;;;;;4.13;0.68;;;28.50;99.90;;;;;;5031892;28;20057;-72
2021/11/19 02:28:52;;;;;;;4.13;0.77;;;28.80;99.90;;;;;;5030091;28;20025;-70
2021/11/19 02:31:27;;;;;;;6.65;0.70;;;28.70;99.90;;;;;;5054002;28;20059;-72
2021/11/19 02:33:57;;;;;;;6.03;1.00;;;28.40;99.30;;;;;;5026181;28;20100;-71
2021/11/19 02:36:44;;;;;;;5.78;0.93;;;28.30;99.90;;;;;;5043214;28;20025;-71
2021/11/19 02:39:16;;;;;;;2.25;0.80;;;28.10;99.90;;;;;;5035778;28;20022;-73
2021/11/19 02:41:47;;;;;;;3.25;0.52;;;27.90;99.90;;;;;;5038102;28;20028;-72
2021/11/19 02:44:18;;;;;;;4.55;0.57;;;28.20;99.90;;;;;;5035089;28;20022;-72
2021/11/19 02:46:56;;;;;;;4.32;0.60;;;28.40;99.90;;;;;;5041601;28;20053;-72
2021/11/19 02:49:24;;;;;;;3.17;0.68;;;28.50;99.90;;;;;;5040801;28;20060;-69
2021/11/19 02:51:52;;;;;;;4.43;0.95;;;28.50;99.90;;;;;;5039732;28;20108;-71
2021/11/19 02:54:23;;;;;;;2.70;0.80;;;28.80;99.90;;;;;;5034710;28;20021;-71
2021/11/19 02:56:51;;;;;;;2.45;0.70;;;29.00;99.90;;;;;;5032371;28;20026;-72
2021/11/19 02:59:20;;;;;;;5.03;0.75;;;29.10;99.90;;;;;;5033694;28;20033;-71
2021/11/19 03:02:05;;;;;;;5.78;0.73;;;29.40;99.90;;;;;;5036020;28;20021;-72
2021/11/19 03:04:37;;;;;;;5.53;1.02;;;29.50;99.90;;;;;;5029987;28;20033;-72
2021/11/19 03:07:05;;;;;;;4.00;0.73;;;29.50;99.90;;;;;;5042576;28;20101;-72
2021/11/19 03:09:40;;;;;;;8.20;0.82;;;29.50;98.50;;;;;;5068185;28;20036;-73
2021/11/19 03:12:10;;;;;;;2.45;0.45;;;29.10;97.90;;;;;;5037632;28;20014;-73
2021/11/19 03:14:39;;;;;;;6.00;0.70;;;29.20;98.60;;;;;;5023212;28;20044;-75
2021/11/19 03:17:08;;;;;;;3.05;0.50;;;29.20;98.50;;;;;;5044386;28;20017;-74
2021/11/19 03:19:36;;;;;;;4.50;0.80;;;29.30;98.40;;;;;;5039547;28;20053;-74
2021/11/19 03:22:05;;;;;;;4.88;0.50;;;29.20;98.80;;;;;;5043325;28;20021;-75
2021/11/19 03:24:33;;;;;;;4.93;0.60;;;29.30;98.80;;;;;;5028526;28;20025;-74
2021/11/19 03:27:01;;;;;;;5.30;0.70;;;29.30;98.10;;;;;;5026401;28;20056;-74
2021/11/19 03:29:28;;;;;;;5.43;0.93;;;29.40;99.40;;;;;;5035100;28;20037;-74
2021/11/19 03:31:56;;;;;;;4.68;0.45;;;29.30;97.90;;;;;;5030621;28;20037;-73
2021/11/19 03:34:23;;;;;;;2.20;0.50;;;29.10;98.20;;;;;;5025479;28;20022;-73
2021/11/19 03:36:55;;;;;;;3.80;0.70;;;28.90;98.70;;;;;;5032961;28;20083;-72
2021/11/19 03:39:25;;;;;;;3.67;0.40;;;28.60;99.20;;;;;;5031410;28;20516;-72
2021/11/19 03:41:56;;;;;;;5.90;0.90;;;28.50;98.80;;;;;;5032739;28;20108;-74
2021/11/19 03:44:28;;;;;;;43.30;8.20;;;28.50;99.00;;;;;;5031182;28;20573;-69
2021/11/19 03:47:05;;;;;;;18.42;7.82;;;28.50;99.80;;;;;;5036340;28;20559;-74
2021/11/19 03:49:34;;;;;;;7.78;0.90;;;28.40;99.90;;;;;;5035379;28;20497;-72
2021/11/19 03:52:10;;;;;;;52.70;12.75;;;28.20;99.90;;;;;;5038383;28;20086;-73
2021/11/19 03:54:39;;;;;;;19.25;6.30;;;28.10;99.70;;;;;;5039553;28;20059;-74
2021/11/19 03:57:09;;;;;;;30.17;9.00;;;28.20;99.90;;;;;;5063151;28;20037;-73
2021/11/19 03:59:36;;;;;;;27.83;7.55;;;28.10;99.90;;;;;;5034571;28;20031;-71
2021/11/19 04:02:05;;;;;;;23.73;7.78;;;28.00;99.90;;;;;;5038337;28;20053;-73
2021/11/19 04:04:35;;;;;;;10.85;2.90;;;28.00;99.90;;;;;;5034802;28;20079;-73
2021/11/19 04:07:04;;;;;;;7.25;2.60;;;27.80;99.90;;;;;;5036862;28;20022;-71
2021/11/19 04:09:32;;;;;;;48.40;7.10;;;27.80;99.90;;;;;;5044510;28;20044;-71
2021/11/19 04:12:01;;;;;;;20.25;4.25;;;27.50;99.90;;;;;;5037061;28;20104;-71
2021/11/19 04:14:29;;;;;;;30.45;4.55;;;27.40;99.90;;;;;;5044967;28;20030;-69
2021/11/19 04:16:58;;;;;;;4.82;1.80;;;27.40;99.90;;;;;;5041081;28;20029;-72
2021/11/19 04:19:29;;;;;;;7.63;1.95;;;27.30;99.90;;;;;;5050793;28;20040;-72
2021/11/19 04:22:00;;;;;;;9.98;2.45;;;27.30;99.90;;;;;;5040015;28;20661;-70
2021/11/19 04:24:32;;;;;;;6.63;2.30;;;27.30;99.90;;;;;;5028278;28;20116;-70
2021/11/19 04:26:59;;;;;;;7.85;2.45;;;27.30;99.90;;;;;;5029640;28;20021;-70
2021/11/19 04:29:27;;;;;;;9.02;2.83;;;27.20;99.90;;;;;;5030397;28;20040;-71
2021/11/19 04:31:54;;;;;;;5.35;2.13;;;27.20;99.90;;;;;;5032422;28;20519;-72
2021/11/19 04:34:22;;;;;;;6.28;2.20;;;27.20;99.90;;;;;;5033130;28;20017;-71
2021/11/19 04:36:49;;;;;;;7.93;1.70;;;27.20;99.90;;;;;;5030858;28;20029;-71
2021/11/19 04:39:17;;;;;;;4.43;1.58;;;27.10;99.90;;;;;;5033040;28;20026;-70
2021/11/19 04:41:46;;;;;;;5.80;1.92;;;27.10;99.90;;;;;;5034995;28;20390;-71
2021/11/19 04:44:14;;;;;;;13.18;2.10;;;27.10;99.90;;;;;;5041178;28;20111;-72
2021/11/19 04:46:42;;;;;;;4.57;1.40;;;27.00;99.90;;;;;;5046118;28;20045;-72
2021/11/19 04:49:10;;;;;;;8.52;2.95;;;27.10;99.90;;;;;;5039990;28;20038;-71
2021/11/19 04:51:39;;;;;;;8.38;2.22;;;26.90;99.90;;;;;;5034902;28;20496;-71
2021/11/19 04:54:07;;;;;;;4.57;2.00;;;26.90;99.90;;;;;;5032287;28;20029;-72
2021/11/19 04:56:35;;;;;;;8.15;1.83;;;26.90;99.90;;;;;;5032557;28;20120;-72
2021/11/19 04:59:04;;;;;;;8.02;1.88;;;26.90;99.90;;;;;;5032236;28;20033;-72
2021/11/19 05:01:36;;;;;;;6.28;1.30;;;26.80;99.90;;;;;;5041061;28;20025;-72
2021/11/19 05:04:05;;;;;;;5.97;1.50;;;26.80;99.90;;;;;;5048034;28;20037;-72
2021/11/19 05:06:33;;;;;;;6.68;1.60;;;26.80;99.90;;;;;;5029754;28;20025;-72
2021/11/19 05:09:02;;;;;;;7.35;1.92;;;26.90;99.90;;;;;;5032475;28;20389;-72
2021/11/19 05:11:34;;;;;;;5.50;1.52;;;26.90;99.90;;;;;;5031409;28;20481;-72
2021/11/19 05:14:04;;;;;;;9.43;1.58;;;26.90;99.90;;;;;;5021711;28;20028;-73
2021/11/19 05:16:32;;;;;;;4.03;1.00;;;26.90;99.90;;;;;;5032842;28;20034;-73
2021/11/19 05:19:00;;;;;;;2.40;0.73;;;26.90;99.90;;;;;;5033191;28;20116;-73
2021/11/19 05:21:27;;;;;;;4.90;0.70;;;26.90;99.90;;;;;;5028958;28;20513;-72
2021/11/19 05:23:55;;;;;;;2.17;0.60;;;26.90;99.90;;;;;;5031699;28;20036;-72
2021/11/19 05:26:23;;;;;;;6.30;0.70;;;27.00;99.90;;;;;;5030527;28;20044;-73
2021/11/19 05:28:50;;;;;;;5.05;1.45;;;27.00;99.90;;;;;;5046341;28;20041;-73
2021/11/19 05:31:18;;;;;;;6.63;1.08;;;26.90;99.90;;;;;;5040198;28;20032;-72
2021/11/19 05:33:46;;;;;;;8.23;1.48;;;26.70;99.90;;;;;;5037997;28;20021;-73
2021/11/19 05:36:14;;;;;;;10.07;1.45;;;26.60;99.90;;;;;;5049470;28;20041;-73
2021/11/19 05:38:42;;;;;;;6.95;1.30;;;26.50;99.90;;;;;;5031671;28;20025;-72
2021/11/19 05:41:12;;;;;;;5.53;1.13;;;26.50;99.90;;;;;;5034103;28;20025;-72
2021/11/19 05:43:43;;;;;;;9.75;1.63;;;26.30;99.90;;;;;;5032604;28;20421;-73
2021/11/19 05:46:12;;;;;;;7.82;1.40;;;26.30;99.90;;;;;;5033816;28;20075;-73
2021/11/19 05:48:40;;;;;;;3.80;0.98;;;26.30;99.90;;;;;;5034007;28;20045;-72
2021/11/19 05:51:08;;;;;;;7.70;1.02;;;26.20;99.90;;;;;;5047520;28;20397;-72
2021/11/19 05:53:36;;;;;;;4.05;0.70;;;26.20;99.90;;;;;;5042571;28;20033;-73
2021/11/19 05:56:04;;;;;;;8.15;1.08;;;26.20;99.90;;;;;;5024325;28;20534;-72
2021/11/19 05:58:32;;;;;;;16.08;1.98;;;26.10;99.90;;;;;;5032420;28;20039;-73
2021/11/19 06:01:03;;;;;;;7.57;1.00;;;26.20;99.90;;;;;;5040227;28;20535;-73
2021/11/19 06:03:30;;;;;;;9.70;1.17;;;26.10;99.90;;;;;;5028901;28;20033;-72
2021/11/19 06:05:58;;;;;;;5.40;1.10;;;26.10;99.90;;;;;;5029443;28;20030;-72
2021/11/19 06:08:26;;;;;;;5.45;1.15;;;26.10;99.90;;;;;;5032360;28;20041;-71
2021/11/19 06:10:59;;;;;;;9.70;1.60;;;26.10;99.90;;;;;;5035809;28;20034;-71
2021/11/19 06:13:44;;;;;;;6.47;1.40;;;26.20;99.90;;;;;;5043693;28;20092;-71
2021/11/19 06:16:17;;;;;;;30.05;4.68;;;26.20;99.90;;;;;;5017629;28;20030;-70
2021/11/19 06:18:48;;;;;;;33.13;6.47;;;25.70;99.90;;;;;;5022514;28;20491;-70
2021/11/19 06:21:26;;;;;;;32.97;5.93;;;24.80;99.90;;;;;;5031529;28;20091;-68
2021/11/19 06:23:57;;;;;;;38.70;7.22;;;23.50;99.90;;;;;;5035787;28;20033;-70
2021/11/19 06:26:27;;;;;;;34.20;7.32;;;23.10;99.90;;;;;;5034548;28;20013;-69
2021/11/19 06:29:06;;;;;;;32.35;6.63;;;22.90;99.90;;;;;;5030558;28;20037;-69
2021/11/19 06:31:37;;;;;;;31.55;6.70;;;22.40;99.90;;;;;;5037857;28;20115;-69
2021/11/19 06:34:05;;;;;;;38.03;6.70;;;21.90;99.90;;;;;;5034557;28;20112;-71
2021/11/19 06:36:33;;;;;;;28.90;6.50;;;21.70;99.90;;;;;;5031055;28;21090;-70
2021/11/19 06:39:02;;;;;;;27.92;5.97;;;21.50;99.90;;;;;;5036180;28;20025;-70
2021/11/19 06:41:30;;;;;;;35.95;7.03;;;21.30;99.90;;;;;;5029639;28;20022;-70
2021/11/19 06:43:57;;;;;;;41.63;9.13;;;21.00;99.90;;;;;;5046076;28;20437;-72
2021/11/19 06:46:24;;;;;;;31.05;7.20;;;20.80;99.90;;;;;;5036087;28;20080;-70
2021/11/19 06:48:52;;;;;;;42.08;8.25;;;20.70;99.90;;;;;;5029092;28;20547;-70
2021/11/19 06:51:21;;;;;;;34.63;7.18;;;20.60;99.90;;;;;;5037793;28;20052;-71
2021/11/19 06:53:49;;;;;;;38.47;7.72;;;20.60;99.90;;;;;;5052833;28;20055;-70
2021/11/19 06:56:19;;;;;;;40.47;9.25;;;20.50;99.90;;;;;;5032741;28;20070;-70
2021/11/19 06:58:48;;;;;;;40.75;8.93;;;20.50;99.90;;;;;;5055063;28;20033;-70
2021/11/19 07:01:15;;;;;;;35.00;7.32;;;20.40;99.90;;;;;;5030421;28;20013;-68
2021/11/19 07:03:43;;;;;;;42.53;7.85;;;20.40;99.90;;;;;;5024922;28;20087;-72
2021/11/19 07:06:11;;;;;;;41.40;9.70;;;20.20;99.90;;;;;;5032909;28;20131;-73
2021/11/19 07:08:39;;;;;;;34.85;8.38;;;20.30;99.90;;;;;;5034373;28;20045;-72
2021/11/19 07:11:12;;;;;;;40.33;7.75;;;20.10;99.90;;;;;;5027676;28;20136;-72
2021/11/19 07:13:40;;;;;;;42.17;8.65;;;20.00;99.90;;;;;;5040055;28;20032;-72
2021/11/19 07:16:07;;;;;;;39.03;8.75;;;20.10;99.90;;;;;;5038840;28;20490;-70
2021/11/19 07:18:35;;;;;;;35.92;9.07;;;19.80;99.90;;;;;;5031721;28;20393;-69
2021/11/19 07:21:03;;;;;;;45.00;9.45;;;19.80;99.90;;;;;;5035383;28;20025;-70
2021/11/19 07:23:30;;;;;;;34.28;6.93;;;19.60;99.90;;;;;;5036260;28;20029;-70
2021/11/19 07:25:58;;;;;;;50.58;9.25;;;19.70;99.90;;;;;;5037863;28;20048;-70
2021/11/19 07:28:26;;;;;;;37.00;7.70;;;19.70;99.90;;;;;;5056049;28;20033;-69
2021/11/19 07:30:58;;;;;;;38.55;7.25;;;19.60;99.90;;;;;;5051506;28;20026;-69
2021/11/19 07:33:27;;;;;;;45.22;8.98;;;19.60;99.90;;;;;;5028763;28;20119;-69
2021/11/19 07:35:57;;;;;;;49.60;7.97;;;19.50;99.90;;;;;;5039027;28;20106;-69
2021/11/19 07:38:25;;;;;;;39.92;8.23;;;19.30;99.90;;;;;;5056658;28;20108;-69
2021/11/19 07:40:54;;;;;;;47.78;9.43;;;19.30;99.90;;;;;;5048184;28;20028;-68
2021/11/19 07:43:23;;;;;;;39.85;9.10;;;19.30;99.90;;;;;;5035372;28;20041;-69
2021/11/19 07:45:51;;;;;;;38.97;8.38;;;19.20;99.90;;;;;;5035355;28;20037;-69
2021/11/19 07:48:22;;;;;;;40.30;6.53;;;19.10;99.90;;;;;;5037246;28;20076;-69
2021/11/19 07:50:54;;;;;;;35.67;8.93;;;19.10;99.90;;;;;;5038120;28;20013;-68
2021/11/19 07:53:22;;;;;;;39.42;8.38;;;18.90;99.90;;;;;;5057178;28;20113;-69
2021/11/19 07:55:52;;;;;;;35.83;7.45;;;18.90;99.90;;;;;;5047970;28;20105;-68
2021/11/19 07:58:20;;;;;;;42.63;9.50;;;18.80;99.90;;;;;;5057558;28;20035;-69
2021/11/19 08:00:49;;;;;;;36.40;8.43;;;18.70;99.90;;;;;;5053809;28;20034;-68
2021/11/19 08:03:18;;;;;;;37.22;7.72;;;18.70;99.90;;;;;;5025977;28;20030;-68
2021/11/19 08:05:52;;;;;;;35.83;7.55;;;18.60;99.90;;;;;;5034454;28;20481;-68
2021/11/19 08:08:20;;;;;;;39.85;6.32;;;18.60;99.90;;;;;;5057976;28;20021;-69
2021/11/19 08:10:49;;;;;;;45.30;7.68;;;18.60;99.90;;;;;;5052829;28;20362;-68
2021/11/19 08:13:17;;;;;;;35.47;7.10;;;18.70;99.90;;;;;;5056426;28;20103;-69
2021/11/19 08:15:46;;;;;;;37.45;7.80;;;18.60;99.90;;;;;;5049907;28;20335;-69
2021/11/19 08:18:34;;;;;;;35.30;7.65;;;18.60;99.90;;;;;;5033435;28;20472;-69
2021/11/19 08:21:03;;;;;;;32.17;6.25;;;18.60;99.90;;;;;;5037784;28;20021;-68
2021/11/19 08:23:34;;;;;;;44.15;6.43;;;18.60;99.90;;;;;;5056552;28;20377;-68
2021/11/19 08:26:30;;;;;;;27.98;5.80;;;18.50;99.90;;;;;;5049765;28;20377;-69
2021/11/19 08:28:58;;;;;;;48.97;8.27;;;18.40;99.90;;;;;;5034354;28;20026;-68
2021/11/19 08:31:27;;;;;;;40.03;6.95;;;18.50;99.90;;;;;;5035168;28;20172;-68
2021/11/19 08:33:55;;;;;;;40.03;7.43;;;18.50;99.90;;;;;;5035572;28;20032;-69
2021/11/19 08:36:25;;;;;;;38.35;7.97;;;18.40;99.90;;;;;;5035870;28;20068;-69
2021/11/19 08:38:53;;;;;;;37.45;6.80;;;18.30;99.90;;;;;;5056414;28;20159;-68
2021/11/19 08:41:20;;;;;;;38.10;7.90;;;18.30;99.90;;;;;;5054252;28;20099;-69
2021/11/19 08:43:50;;;;;;;37.65;5.63;;;18.20;99.90;;;;;;5056111;28;20072;-70
2021/11/19 08:46:22;;;;;;;31.23;5.88;;;18.30;99.90;;;;;;5047264;28;20052;-69
2021/11/19 08:48:50;;;;;;;33.22;5.75;;;18.20;99.90;;;;;;5032790;28;20042;-69
2021/11/19 08:51:22;;;;;;;33.80;5.88;;;18.20;99.90;;;;;;5034385;28;20024;-69
2021/11/19 08:53:52;;;;;;;31.88;5.80;;;18.20;99.90;;;;;;5050882;28;20038;-69
2021/11/19 08:56:20;;;;;;;33.35;6.18;;;18.20;99.90;;;;;;5038323;28;20366;-69
2021/11/19 08:58:48;;;;;;;36.28;5.53;;;18.30;99.90;;;;;;5054929;28;20032;-69
2021/11/19 09:01:18;;;;;;;33.80;5.75;;;18.30;99.90;;;;;;5052318;28;20028;-69
2021/11/19 09:03:46;;;;;;;33.95;5.70;;;18.20;99.90;;;;;;5053407;28;20025;-69
2021/11/19 09:06:15;;;;;;;30.42;5.07;;;18.20;99.90;;;;;;5039159;28;20045;-69
2021/11/19 09:08:44;;;;;;;25.80;5.00;;;18.20;99.90;;;;;;5055373;28;20504;-69
2021/11/19 09:11:16;;;;;;;36.05;6.38;;;18.10;99.90;;;;;;5034635;28;20021;-69
2021/11/19 09:13:44;;;;;;;33.17;6.70;;;18.00;99.90;;;;;;5053495;28;20500;-70
2021/11/19 09:16:14;;;;;;;30.15;7.03;;;18.00;99.90;;;;;;5046665;28;20509;-69
2021/11/19 09:18:53;;;;;;;34.75;7.20;;;18.00;99.90;;;;;;5034648;28;20021;-69
2021/11/19 09:21:30;;;;;;;39.92;8.13;;;18.10;99.90;;;;;;5033426;28;20029;-69
2021/11/19 09:24:02;;;;;;;29.95;6.57;;;18.10;99.90;;;;;;5033793;28;20036;-69
2021/11/19 09:26:43;;;;;;;32.53;6.15;;;18.10;99.90;;;;;;5029615;28;20036;-69
2021/11/19 09:29:24;;;;;;;35.47;5.15;;;18.20;99.90;;;;;;5019037;28;20037;-69
2021/11/19 09:31:51;;;;;;;42.33;6.88;;;18.10;99.90;;;;;;5043194;28;20036;-69
2021/11/19 09:34:20;;;;;;;34.58;6.72;;;18.10;99.90;;;;;;5034977;28;20037;-69
2021/11/19 09:36:48;;;;;;;37.13;6.07;;;18.10;99.90;;;;;;5032764;28;20030;-70
2021/11/19 09:39:17;;;;;;;38.92;5.50;;;18.10;99.90;;;;;;5033587;28;20112;-69
2021/11/19 09:42:16;;;;;;;36.83;6.45;;;18.10;99.90;;;;;;5037540;28;20393;-69
2021/11/19 09:45:03;;;;;;;31.65;5.53;;;18.10;99.90;;;;;;5008934;28;20072;-68
2021/11/19 09:47:55;;;;;;;46.35;6.28;;;18.00;99.90;;;;;;5045954;28;20024;-69
2021/11/19 09:50:55;;;;;;;35.10;5.63;;;18.00;99.90;;;;;;5052957;28;20029;-70
2021/11/19 09:53:55;;;;;;;34.00;5.63;;;18.10;99.90;;;;;;5051280;28;20036;-69
2021/11/19 09:56:55;;;;;;;31.38;7.30;;;18.20;99.90;;;;;;5049253;28;20227;-70
2021/11/19 09:59:51;;;;;;;39.13;5.30;;;18.10;99.90;;;;;;5053061;28;20037;-70
2021/11/19 10:02:55;;;;;;;41.90;7.70;;;18.20;99.90;;;;;;5050549;28;20428;-70
2021/11/19 10:05:35;;;;;;;37.40;6.78;;;18.20;99.90;;;;;;5053132;28;20036;-70
2021/11/19 10:08:10;;;;;;;36.95;6.88;;;18.10;99.90;;;;;;5020195;28;20029;-70
2021/11/19 10:11:18;;;;;;;46.05;7.20;;;18.10;99.90;;;;;;5018304;28;20041;-69
2021/11/19 10:14:11;;;;;;;35.97;7.13;;;18.10;99.90;;;;;;4991598;28;20038;-69
2021/11/19 10:16:56;;;;;;;39.47;7.47;;;18.10;99.90;;;;;;5032558;28;20022;-69
2021/11/19 10:19:30;;;;;;;53.33;8.20;;;18.10;99.90;;;;;;5032401;28;20052;-69
2021/11/19 10:22:21;;;;;;;46.20;7.63;;;18.10;99.90;;;;;;5042569;28;20029;-69
2021/11/19 10:25:03;;;;;;;38.72;7.60;;;18.10;99.90;;;;;;5031010;28;20386;-68
2021/11/19 10:27:38;;;;;;;37.38;7.03;;;18.20;99.90;;;;;;5047253;28;20059;-68
2021/11/19 10:30:17;;;;;;;45.30;8.23;;;18.20;99.90;;;;;;5036293;28;20557;-68
2021/11/19 10:32:44;;;;;;;39.50;9.02;;;18.20;99.90;;;;;;5049214;28;20035;-68
2021/11/19 10:35:26;;;;;;;43.13;8.93;;;18.20;99.90;;;;;;5052730;28;20478;-68
2021/11/19 10:38:18;;;;;;;33.47;6.60;;;18.30;99.90;;;;;;5012753;28;20029;-68
2021/11/19 10:41:03;;;;;;;45.90;6.82;;;18.30;99.90;;;;;;5015326;28;20034;-68
2021/11/19 10:44:12;;;;;;;40.13;8.00;;;18.30;99.90;;;;;;5032510;28;20029;-68
2021/11/19 10:47:19;;;;;;;41.40;8.60;;;18.30;99.90;;;;;;5008708;28;20058;-69
2021/11/19 10:50:20;;;;;;;44.15;8.50;;;18.30;99.90;;;;;;4988727;28;20520;-68
2021/11/19 10:53:18;;;;;;;46.88;7.80;;;18.30;99.90;;;;;;5033137;28;20436;-68
2021/11/19 10:56:03;;;;;;;41.17;7.60;;;18.30;99.90;;;;;;5035357;28;20112;-68
2021/11/19 10:58:51;;;;;;;48.83;7.55;;;18.40;99.90;;;;;;5036165;28;20382;-68
2021/11/19 11:01:45;;;;;;;43.28;7.60;;;18.40;99.90;;;;;;5035842;28;20017;-68
2021/11/19 11:04:32;;;;;;;39.67;7.13;;;18.30;99.90;;;;;;5035327;28;20358;-69
2021/11/19 11:07:16;;;;;;;47.88;8.65;;;18.30;99.90;;;;;;5046516;28;20025;-68
2021/11/19 11:10:04;;;;;;;38.25;6.35;;;18.30;99.90;;;;;;5055908;28;20404;-68
2021/11/19 11:12:52;;;;;;;40.00;8.07;;;18.30;99.90;;;;;;5053319;28;20021;-68
2021/11/19 11:15:38;;;;;;;39.55;5.43;;;18.30;99.90;;;;;;5055547;28;20432;-68
2021/11/19 11:18:15;;;;;;;41.67;6.65;;;18.30;99.90;;;;;;5028699;28;20025;-68
2021/11/19 11:20:59;;;;;;;37.83;6.57;;;18.30;99.90;;;;;;5035323;28;20025;-68
2021/11/19 11:23:45;;;;;;;30.80;8.48;;;18.30;99.90;;;;;;5055659;28;20104;-68
2021/11/19 11:26:36;;;;;;;38.88;7.35;;;18.30;99.90;;;;;;5036827;28;20025;-68
2021/11/19 11:29:09;;;;;;;39.20;6.45;;;18.40;99.90;;;;;;5015601;28;20038;-68
2021/11/19 11:32:10;;;;;;;32.27;6.57;;;18.40;99.90;;;;;;5033178;28;20055;-68
2021/11/19 11:34:55;;;;;;;39.08;6.57;;;18.40;99.90;;;;;;5055402;28;20020;-68
2021/11/19 11:37:52;;;;;;;31.70;5.65;;;18.40;99.90;;;;;;5052884;28;20047;-68
2021/11/19 11:40:32;;;;;;;35.58;5.47;;;18.50;99.90;;;;;;5055160;28;20017;-68
2021/11/19 11:43:30;;;;;;;37.40;6.25;;;18.50;99.90;;;;;;5034793;28;20053;-68
2021/11/19 11:46:01;;;;;;;29.05;5.18;;;18.50;99.90;;;;;;5032470;28;20045;-68
2021/11/19 11:48:38;;;;;;;35.85;6.18;;;18.50;99.90;;;;;;5035313;28;20113;-68
2021/11/19 11:51:13;;;;;;;39.22;5.20;;;18.60;99.90;;;;;;5034063;28;20022;-67
2021/11/19 11:53:58;;;;;;;27.50;5.75;;;18.60;99.90;;;;;;5036942;28;20026;-67
2021/11/19 11:56:30;;;;;;;36.10;6.15;;;18.50;99.90;;;;;;5049311;28;20029;-67
2021/11/19 11:59:33;;;;;;;29.48;5.65;;;18.60;99.90;;;;;;5043953;28;20029;-67
2021/11/19 12:02:19;;;;;;;38.95;5.95;;;18.60;99.90;;;;;;5042645;28;20104;-67
2021/11/19 12:05:14;;;;;;;28.42;4.65;;;18.70;99.90;;;;;;5043643;28;20053;-67
2021/11/19 12:07:50;;;;;;;36.05;5.13;;;18.70;99.90;;;;;;5043106;28;20060;-68
2021/11/19 12:10:45;;;;;;;39.05;4.93;;;18.80;99.90;;;;;;5042745;28;20470;-68
2021/11/19 12:13:18;;;;;;;41.17;5.38;;;18.70;99.90;;;;;;5033636;28;20025;-68
2021/11/19 12:16:32;;;;;;;36.65;6.82;;;18.60;99.90;;;;;;5035666;28;20033;-68
2021/11/19 12:19:10;;;;;;;40.25;5.60;;;18.50;99.90;;;;;;5045903;28;20123;-68
2021/11/19 12:22:01;;;;;;;36.03;6.53;;;18.50;99.90;;;;;;5038125;28;20470;-68
2021/11/19 12:24:52;;;;;;;27.15;4.72;;;18.40;99.90;;;;;;5037655;28;20053;-68
2021/11/19 12:27:38;;;;;;;35.47;6.15;;;18.40;99.90;;;;;;5050062;28;20030;-68
2021/11/19 12:30:17;;;;;;;42.85;6.38;;;18.50;99.90;;;;;;5043254;28;20560;-68
2021/11/19 12:33:07;;;;;;;32.08;5.13;;;18.50;99.90;;;;;;5032164;28;20035;-68
2021/11/19 12:35:55;;;;;;;29.50;5.28;;;18.40;99.90;;;;;;5044549;28;20118;-68
2021/11/19 12:38:30;;;;;;;30.63;4.97;;;18.40;99.90;;;;;;5040976;28;20033;-68
2021/11/19 12:41:17;;;;;;;39.15;7.25;;;18.30;99.90;;;;;;5032740;28;20021;-68
2021/11/19 12:44:20;;;;;;;38.78;6.82;;;18.30;99.90;;;;;;5038962;28;20112;-68
2021/11/19 12:47:18;;;;;;;32.47;5.80;;;18.30;99.90;;;;;;5043452;28;20037;-68
2021/11/19 12:49:57;;;;;;;35.20;4.82;;;18.30;99.90;;;;;;5038654;28;20041;-68
2021/11/19 12:52:30;;;;;;;37.95;4.82;;;18.30;99.90;;;;;;5036361;28;20064;-67
2021/11/19 12:55:26;;;;;;;37.08;5.55;;;18.30;99.90;;;;;;5050392;28;20500;-67
2021/11/19 12:58:14;;;;;;;33.40;5.93;;;18.30;99.90;;;;;;5042554;28;20044;-67
2021/11/19 13:01:09;;;;;;;30.85;6.07;;;18.40;99.90;;;;;;5038981;28;20037;-67
2021/11/19 13:04:14;;;;;;;32.97;4.55;;;18.30;99.90;;;;;;5033995;28;20108;-67
2021/11/19 13:07:10;;;;;;;33.72;5.05;;;18.30;99.90;;;;;;5030371;28;20124;-67
2021/11/19 13:09:49;;;;;;;40.10;5.97;;;18.30;99.90;;;;;;5021646;28;20030;-67
2021/11/19 13:12:35;;;;;;;27.63;4.68;;;18.30;99.90;;;;;;5043175;28;20104;-67
2021/11/19 13:15:20;;;;;;;27.42;5.65;;;18.30;99.90;;;;;;5043703;28;20492;-67
2021/11/19 13:18:05;;;;;;;28.23;4.97;;;18.30;99.90;;;;;;5034267;28;20044;-67
2021/11/19 13:20:56;;;;;;;37.22;6.90;;;18.30;99.90;;;;;;5032740;28;20040;-69
2021/11/19 13:23:32;;;;;;;27.67;4.93;;;18.30;99.90;;;;;;5037043;28;20503;-68